Terminal Aerodrome Forecast
Issued by NWS Louisville, KY

Home | Current Version | Previous Version | Text Only | Print | Product List | Glossary On
Versions: 1 2 3 4 5 6 7 8 9 10 11 12 13 14 15 16 17 18 19 20 21 22 23 24
000
FTUS43 KLMK 140300 AAA
TAFSDF
TAF AMD
KSDF 140345Z 1404/1506 18016G24KT P6SM OVC090 WS020/20048KT
     FM140800 18016G23KT 6SM -SHRA BKN035
     FM141600 21013G21KT P6SM VCSH OVC025
     FM142200 34015G24KT 5SM -SHRA BKN015=

USA.gov is the U.S. government's official web portal to all federal, state and local government web resources and services.